createdAt,value
2018-12-09T00:02:10.528Z,61.42
2018-12-09T00:07:14.044Z,60.63
2018-12-09T00:12:17.552Z,61.24
2018-12-09T00:17:20.933Z,60.89
2018-12-09T00:22:24.364Z,61.14
2018-12-09T00:27:27.827Z,61.43
2018-12-09T00:32:31.406Z,60.77
2018-12-09T00:37:38.069Z,61.46
2018-12-09T00:42:43.528Z,60.82
2018-12-09T00:47:47.123Z,61.47
2018-12-09T00:52:50.553Z,60.97
2018-12-09T00:57:53.951Z,60.47
2018-12-09T01:02:57.419Z,61.23
2018-12-09T01:08:00.988Z,61.43
2018-12-09T01:13:04.630Z,61.42
2018-12-09T01:18:08.211Z,61.24
2018-12-09T01:23:11.623Z,61.43
2018-12-09T01:28:15.135Z,61.82
2018-12-09T01:33:18.529Z,61.56
2018-12-09T01:38:21.884Z,61.79
2018-12-09T01:43:25.347Z,61.93
2018-12-09T01:48:28.912Z,61.85
2018-12-09T01:54:38.379Z,62.08
2018-12-09T01:59:41.864Z,61.94
2018-12-09T02:04:45.401Z,61.80
2018-12-09T02:09:48.890Z,61.11
2018-12-09T02:14:52.310Z,61.50
2018-12-09T02:19:55.664Z,62.02
2018-12-09T02:24:59.050Z,61.48
2018-12-09T02:30:02.602Z,61.57
2018-12-09T02:35:06.809Z,61.73
2018-12-09T02:40:10.294Z,62.06
2018-12-09T02:45:13.740Z,61.93
2018-12-09T02:50:17.461Z,61.93
2018-12-09T02:55:20.968Z,61.67
2018-12-09T03:00:24.556Z,62.04
2018-12-09T03:05:27.935Z,62.09
2018-12-09T03:10:31.341Z,62.19
2018-12-09T03:15:34.957Z,61.71
2018-12-09T03:20:38.361Z,62.05
2018-12-09T03:25:41.869Z,62.08
2018-12-09T03:30:45.442Z,62.12
2018-12-09T03:35:48.831Z,61.96
2018-12-09T03:40:52.400Z,62.49
2018-12-09T03:45:55.826Z,61.80
2018-12-09T03:50:59.249Z,62.04
2018-12-09T03:56:02.723Z,61.60
2018-12-09T04:01:06.143Z,60.60
2018-12-09T04:06:09.670Z,59.86
2018-12-09T04:11:13.090Z,60.32
2018-12-09T04:16:16.891Z,61.23
2018-12-09T04:21:20.343Z,61.30
2018-12-09T04:26:23.712Z,61.67
2018-12-09T04:31:27.049Z,61.72
2018-12-09T04:36:30.447Z,61.72
2018-12-09T04:41:33.830Z,62.06
2018-12-09T04:46:37.210Z,61.80
2018-12-09T04:51:52.103Z,62.02
2018-12-09T04:56:55.642Z,61.43
2018-12-09T05:01:59.164Z,61.43
2018-12-09T05:07:02.656Z,61.16
2018-12-09T05:12:06.114Z,60.95
2018-12-09T05:17:09.447Z,60.10
2018-12-09T05:22:13.195Z,61.49
2018-12-09T05:27:16.560Z,61.29
2018-12-09T05:32:20.279Z,61.23
2018-12-09T05:37:23.742Z,61.65
2018-12-09T05:42:27.276Z,61.19
2018-12-09T05:47:30.839Z,61.44
2018-12-09T05:52:34.220Z,61.74
2018-12-09T05:57:37.563Z,61.51
2018-12-09T06:02:56.581Z,62.03
2018-12-09T06:07:59.975Z,61.58
2018-12-09T06:13:03.458Z,62.13
2018-12-09T06:18:07.042Z,61.81
2018-12-09T06:23:10.463Z,62.77
2018-12-09T06:28:13.887Z,62.68
2018-12-09T06:33:17.236Z,62.63
2018-12-09T06:38:20.651Z,63.41
2018-12-09T06:43:24.387Z,63.55
2018-12-09T06:48:27.827Z,63.04
2018-12-09T06:53:31.348Z,63.17
2018-12-09T06:58:34.659Z,63.32
2018-12-09T07:03:38.002Z,63.71
2018-12-09T07:08:41.367Z,63.46
2018-12-09T07:13:44.843Z,63.27
2018-12-09T07:18:48.195Z,63.12
2018-12-09T07:23:51.576Z,63.52
2018-12-09T07:28:54.987Z,62.86
2018-12-09T07:33:58.684Z,62.43
2018-12-09T07:39:02.271Z,62.67
2018-12-09T07:44:05.631Z,63.23
2018-12-09T07:49:08.987Z,62.88
2018-12-09T07:54:12.400Z,63.34
2018-12-09T07:59:15.698Z,63.23
2018-12-09T08:04:19.067Z,63.38
2018-12-09T08:09:22.391Z,63.06
2018-12-09T08:14:25.895Z,63.47
2018-12-09T08:19:29.191Z,63.39
2018-12-09T08:24:32.556Z,63.97
2018-12-09T08:29:35.887Z,64.77
2018-12-09T08:34:39.211Z,64.92
2018-12-09T08:39:42.525Z,64.70
2018-12-09T08:44:45.863Z,64.96
2018-12-09T08:49:49.258Z,64.94
2018-12-09T08:54:52.668Z,64.84
2018-12-09T08:59:56.063Z,63.76
2018-12-09T09:04:59.477Z,63.61
2018-12-09T09:10:03.016Z,63.89
2018-12-09T09:15:06.573Z,63.44
2018-12-09T09:20:09.973Z,62.86
2018-12-09T09:25:13.463Z,63.17
2018-12-09T09:30:16.798Z,63.09
2018-12-09T09:35:20.179Z,63.32
2018-12-09T09:40:23.670Z,63.10
2018-12-09T09:45:26.978Z,63.00
2018-12-09T09:50:30.295Z,63.41
2018-12-09T09:55:33.690Z,63.53
2018-12-09T10:00:40.095Z,62.88
2018-12-09T10:05:43.435Z,63.54
2018-12-09T10:10:46.939Z,62.90
2018-12-09T10:15:56.224Z,62.82
2018-12-09T10:20:59.539Z,63.26
2018-12-09T10:26:07.903Z,63.20
2018-12-09T10:31:12.332Z,63.28
2018-12-09T10:36:27.283Z,62.79
2018-12-09T10:41:31.598Z,63.00
2018-12-09T10:46:38.238Z,63.12
2018-12-09T10:51:42.968Z,63.29
2018-12-09T10:56:46.394Z,62.93
2018-12-09T11:01:52.750Z,63.29
2018-12-09T11:06:56.059Z,63.25
2018-12-09T11:11:59.362Z,63.40
2018-12-09T11:17:04.021Z,63.01
2018-12-09T11:22:07.364Z,63.76
2018-12-09T11:27:11.415Z,63.19
2018-12-09T11:32:14.763Z,63.59
2018-12-09T11:37:18.777Z,62.87
2018-12-09T11:42:22.180Z,62.95
2018-12-09T11:47:25.720Z,63.29
2018-12-09T11:52:29.114Z,62.84
2018-12-09T11:57:32.417Z,62.48
2018-12-09T12:02:35.855Z,62.88
2018-12-09T12:07:39.285Z,63.33
2018-12-09T12:12:42.613Z,65.22
2018-12-09T12:17:45.962Z,65.68
2018-12-09T12:22:49.276Z,64.21
2018-12-09T12:27:52.792Z,64.02
2018-12-09T12:32:56.186Z,63.75
2018-12-09T12:37:59.499Z,63.92
2018-12-09T12:43:02.968Z,61.87
2018-12-09T12:48:06.434Z,61.39
2018-12-09T12:53:09.989Z,61.81
2018-12-09T12:58:13.443Z,61.10
2018-12-09T13:03:16.770Z,61.71
2018-12-09T13:08:20.146Z,62.14
2018-12-09T13:13:23.727Z,61.67
2018-12-09T13:18:27.129Z,60.87
2018-12-09T13:23:30.814Z,61.37
2018-12-09T13:28:34.138Z,61.35
2018-12-09T13:33:38.004Z,61.06
2018-12-09T13:38:41.326Z,61.21
2018-12-09T13:43:44.674Z,60.81
2018-12-09T13:48:48.003Z,60.88
2018-12-09T13:53:51.370Z,60.62
2018-12-09T13:58:54.705Z,60.77
2018-12-09T14:03:58.023Z,60.50
2018-12-09T14:09:01.366Z,60.55
2018-12-09T14:14:04.967Z,60.63
2018-12-09T14:19:08.504Z,60.35
2018-12-09T14:24:12.031Z,60.88
2018-12-09T14:29:15.427Z,61.16
2018-12-09T14:34:18.882Z,60.27
2018-12-09T14:39:22.256Z,60.72
2018-12-09T14:44:31.943Z,60.52
2018-12-09T14:49:35.419Z,61.04
2018-12-09T14:54:38.736Z,59.97
2018-12-09T14:59:42.203Z,60.73
2018-12-09T15:04:45.514Z,60.77
2018-12-09T15:09:49.237Z,61.03
2018-12-09T15:14:52.792Z,60.37
2018-12-09T15:19:56.342Z,59.80
2018-12-09T15:24:59.731Z,60.34
2018-12-09T15:30:03.329Z,59.91
2018-12-09T15:35:07.048Z,59.38
2018-12-09T15:40:10.458Z,59.65
2018-12-09T15:45:13.825Z,60.70
2018-12-09T15:50:17.199Z,60.80
2018-12-09T15:55:20.627Z,59.75
2018-12-09T16:00:25.913Z,60.81
2018-12-09T16:05:29.529Z,60.46
2018-12-09T16:10:32.856Z,60.82
2018-12-09T16:15:36.315Z,60.46
2018-12-09T16:20:40.185Z,60.77
2018-12-09T16:25:43.624Z,59.29
2018-12-09T16:30:46.973Z,60.05
2018-12-09T16:35:50.486Z,60.37
2018-12-09T16:40:53.785Z,60.06
2018-12-09T16:45:57.089Z,60.98
2018-12-09T16:51:00.477Z,60.67
2018-12-09T16:56:03.904Z,61.57
2018-12-09T17:01:07.318Z,61.64
2018-12-09T17:06:10.811Z,61.28
2018-12-09T17:11:14.133Z,59.88
2018-12-09T17:16:17.445Z,61.20
2018-12-09T17:21:21.071Z,60.52
2018-12-09T17:26:24.511Z,60.24
2018-12-09T17:31:27.823Z,60.21
2018-12-09T17:36:31.435Z,60.39
2018-12-09T17:41:35.216Z,60.31
2018-12-09T17:46:38.592Z,60.36
2018-12-09T17:51:41.935Z,60.05
2018-12-09T17:56:45.283Z,60.33
2018-12-09T18:01:48.639Z,59.90
2018-12-09T18:06:51.960Z,60.08
2018-12-09T18:11:55.339Z,60.08
2018-12-09T18:16:58.662Z,59.70
2018-12-09T18:50:19.324Z,59.48
2018-12-09T18:55:23.033Z,59.63
2018-12-09T19:00:26.703Z,59.15
2018-12-09T19:05:30.155Z,59.31
2018-12-09T19:10:33.609Z,59.12
2018-12-09T19:15:36.932Z,58.93
2018-12-09T19:20:40.246Z,59.47
2018-12-09T19:25:43.699Z,60.04
2018-12-09T19:30:48.301Z,59.80
2018-12-09T19:35:52.055Z,59.89
2018-12-09T19:40:55.456Z,60.65
2018-12-09T19:45:58.851Z,60.48
2018-12-09T19:51:02.154Z,60.49
2018-12-09T19:56:05.556Z,59.97
2018-12-09T20:01:09.075Z,59.11
2018-12-09T20:06:14.371Z,59.36
2018-12-09T20:11:18.366Z,59.10
2018-12-09T20:16:21.731Z,59.08
2018-12-09T20:21:25.078Z,59.68
2018-12-09T20:26:28.420Z,58.91
2018-12-09T20:31:31.950Z,59.52
2018-12-09T20:36:35.483Z,59.38
2018-12-09T20:41:38.890Z,59.85
2018-12-09T20:46:42.399Z,59.49
2018-12-09T20:51:45.809Z,59.09
2018-12-09T20:56:49.212Z,59.18
2018-12-09T21:01:52.743Z,59.28
2018-12-09T21:06:56.139Z,59.39
2018-12-09T21:11:59.502Z,59.27
2018-12-09T21:17:03.112Z,59.56
2018-12-09T21:22:06.497Z,59.47
2018-12-09T21:27:10.017Z,59.78
2018-12-09T21:32:13.459Z,59.35
2018-12-09T21:37:16.910Z,59.25
2018-12-09T21:42:20.222Z,58.62
2018-12-09T21:47:23.599Z,58.44
2018-12-09T21:52:27.003Z,59.19
2018-12-09T21:57:30.412Z,59.35
2018-12-09T22:02:33.802Z,59.19
2018-12-09T22:07:37.271Z,59.55
2018-12-09T22:12:40.731Z,59.49
2018-12-09T22:17:44.175Z,59.56
2018-12-09T22:22:47.659Z,59.63
2018-12-09T22:27:51.010Z,59.62
2018-12-09T22:32:54.356Z,59.27
2018-12-09T22:37:57.837Z,59.18
2018-12-09T22:43:01.178Z,59.42
2018-12-09T22:48:04.681Z,59.13
2018-12-09T22:53:08.089Z,59.31
2018-12-09T22:58:11.408Z,59.74
2018-12-09T23:03:14.912Z,59.34
2018-12-09T23:08:18.368Z,59.92
2018-12-09T23:13:21.807Z,59.85
2018-12-09T23:18:26.624Z,59.96
2018-12-09T23:23:30.322Z,59.85
2018-12-09T23:28:33.716Z,59.80
2018-12-09T23:33:37.163Z,60.03
2018-12-09T23:38:40.651Z,59.82
2018-12-09T23:43:44.117Z,59.50
2018-12-09T23:48:47.471Z,59.09
2018-12-09T23:53:50.899Z,59.38
2018-12-09T23:58:54.307Z,59.86
